Time;durP1;ratioP1;P1;durP2;ratioP2;P2;SDS_P1;SDS_P2;PMS_P1;PMS_P2;Temp;Humidity;BMP_temperature;BMP_pressure;BME280_temperature;BME280_humidity;BME280_pressure;Samples;Min_cycle;Max_cycle;Signal;HPM_P1;HPM_P2
2022/05/08 00:01:37;;;;;;;0.87;0.87;;;13.10;99.90;;;;;;5074503;28;20278;-68
2022/05/08 00:04:06;;;;;;;0.90;0.90;;;13.10;99.90;;;;;;5075481;28;20207;-69
2022/05/08 00:06:33;;;;;;;0.80;0.80;;;13.10;99.90;;;;;;5071761;28;20235;-69
2022/05/08 00:09:00;;;;;;;0.90;0.90;;;13.10;99.90;;;;;;5071543;28;20306;-68
2022/05/08 00:11:27;;;;;;;0.80;0.80;;;13.10;99.90;;;;;;5070886;28;20286;-68
2022/05/08 00:13:54;;;;;;;0.80;0.80;;;13.10;99.90;;;;;;5085149;28;20230;-68
2022/05/08 00:16:21;;;;;;;0.90;0.90;;;13.10;99.90;;;;;;5085858;28;20279;-70
2022/05/08 00:18:48;;;;;;;0.90;0.90;;;13.10;99.90;;;;;;5085154;28;20226;-68
2022/05/08 00:21:16;;;;;;;1.03;1.03;;;13.00;99.90;;;;;;5085303;28;20286;-69
2022/05/08 00:23:43;;;;;;;1.20;1.10;;;12.90;99.90;;;;;;5075232;28;20242;-66
2022/05/08 00:26:09;;;;;;;0.97;0.97;;;12.90;99.90;;;;;;5073305;28;20314;-69
2022/05/08 00:28:38;;;;;;;0.70;0.70;;;12.80;99.90;;;;;;5073855;28;20853;-68
2022/05/08 00:31:05;;;;;;;1.70;1.00;;;12.70;99.90;;;;;;5073058;28;20207;-70
2022/05/08 00:33:32;;;;;;;1.00;1.00;;;12.60;99.90;;;;;;5073124;28;20207;-68
2022/05/08 00:35:59;;;;;;;1.03;1.03;;;12.50;99.90;;;;;;5073152;28;20724;-68
2022/05/08 00:38:27;;;;;;;0.90;0.90;;;12.40;99.90;;;;;;5072687;28;20241;-69
2022/05/08 00:40:54;;;;;;;1.00;1.00;;;12.40;99.90;;;;;;5064380;28;20271;-67
2022/05/08 00:43:28;;;;;;;0.97;0.97;;;12.30;99.90;;;;;;5077169;28;20231;-68
2022/05/08 00:45:55;;;;;;;0.90;0.90;;;12.20;99.90;;;;;;5075321;28;20231;-69
2022/05/08 00:48:22;;;;;;;0.87;0.87;;;12.10;99.90;;;;;;5074092;28;20235;-69
2022/05/08 00:50:51;;;;;;;1.20;1.10;;;12.20;99.90;;;;;;5073281;28;20250;-68
2022/05/08 00:53:18;;;;;;;1.13;1.02;;;12.00;99.90;;;;;;5071829;28;20291;-68
2022/05/08 00:55:46;;;;;;;1.00;1.00;;;12.00;99.90;;;;;;5073788;28;20225;-67
2022/05/08 00:58:15;;;;;;;1.20;1.10;;;12.00;99.90;;;;;;5068815;28;20226;-70
2022/05/08 01:00:42;;;;;;;0.83;0.83;;;11.90;99.90;;;;;;5072874;28;20685;-68
2022/05/08 01:03:09;;;;;;;1.10;1.10;;;11.90;99.90;;;;;;5074799;28;20287;-70
2022/05/08 01:05:41;;;;;;;1.00;1.00;;;11.90;99.90;;;;;;5077915;28;20380;-69
2022/05/08 01:08:08;;;;;;;1.10;1.10;;;11.90;99.90;;;;;;5089890;28;20202;-70
2022/05/08 01:10:36;;;;;;;1.10;1.10;;;11.90;99.90;;;;;;5090983;28;20202;-70
2022/05/08 01:13:05;;;;;;;1.30;1.20;;;11.90;99.90;;;;;;5089409;28;20221;-69
2022/05/08 01:15:40;;;;;;;1.03;1.03;;;11.90;99.90;;;;;;5092331;28;20223;-68
2022/05/08 01:18:07;;;;;;;1.00;1.00;;;11.80;99.90;;;;;;5092487;28;20198;-69
2022/05/08 01:20:34;;;;;;;1.17;1.17;;;11.70;99.90;;;;;;5091092;28;20213;-69
2022/05/08 01:23:03;;;;;;;1.50;1.40;;;11.70;99.90;;;;;;5092748;28;20256;-70
2022/05/08 01:25:30;;;;;;;1.03;1.03;;;11.60;99.90;;;;;;5092521;28;20233;-68
2022/05/08 01:27:57;;;;;;;1.07;1.07;;;11.60;99.90;;;;;;5092618;28;20649;-68
2022/05/08 01:30:25;;;;;;;1.00;1.00;;;11.50;99.90;;;;;;5090806;28;20218;-69
2022/05/08 01:32:52;;;;;;;1.00;1.00;;;11.40;99.90;;;;;;5092121;28;20297;-69
2022/05/08 01:35:20;;;;;;;1.00;1.00;;;11.40;99.90;;;;;;5092409;28;20226;-67
2022/05/08 01:37:47;;;;;;;1.00;1.00;;;11.40;99.90;;;;;;5092117;28;20212;-69
2022/05/08 01:40:17;;;;;;;1.20;1.20;;;11.30;99.90;;;;;;5093397;28;20573;-67
2022/05/08 01:42:44;;;;;;;1.20;1.10;;;11.30;99.90;;;;;;5093843;28;20203;-68
2022/05/08 01:45:12;;;;;;;1.83;1.30;;;11.30;99.90;;;;;;5093419;28;20313;-67
2022/05/08 01:50:23;;;;;;;1.00;1.00;;;11.30;99.90;;;;;;5092453;28;20654;-68
2022/05/08 01:52:51;;;;;;;1.30;1.20;;;11.30;99.90;;;;;;5091109;28;20582;-70
2022/05/08 01:55:19;;;;;;;1.13;1.00;;;11.40;99.90;;;;;;5092278;28;20325;-68
2022/05/08 01:57:46;;;;;;;1.03;1.03;;;11.50;99.90;;;;;;5096359;28;20301;-67
2022/05/08 02:00:14;;;;;;;0.90;0.90;;;11.40;99.90;;;;;;5091959;28;20203;-69
2022/05/08 02:02:43;;;;;;;1.17;1.07;;;11.50;99.90;;;;;;5091228;28;20289;-68
2022/05/08 02:05:10;;;;;;;0.90;0.90;;;11.40;99.90;;;;;;5091704;28;20242;-68
2022/05/08 02:07:37;;;;;;;1.10;1.10;;;11.50;99.90;;;;;;5094777;28;20298;-68
2022/05/08 02:10:05;;;;;;;1.40;1.30;;;11.50;99.90;;;;;;5094081;28;20259;-68
2022/05/08 02:12:33;;;;;;;1.10;1.10;;;11.40;99.90;;;;;;5093379;28;20290;-68
2022/05/08 02:15:00;;;;;;;1.20;1.20;;;11.40;99.90;;;;;;5090646;28;20202;-69
2022/05/08 02:17:28;;;;;;;1.10;1.10;;;11.40;99.90;;;;;;5091247;28;20234;-70
2022/05/08 02:19:55;;;;;;;1.10;1.10;;;11.30;99.90;;;;;;5090553;28;20225;-67
2022/05/08 02:22:21;;;;;;;1.10;1.10;;;11.20;99.90;;;;;;5091487;28;20203;-69
2022/05/08 02:24:49;;;;;;;1.10;1.10;;;11.10;99.90;;;;;;5083480;28;20247;-69
2022/05/08 02:27:16;;;;;;;1.10;1.10;;;11.10;99.90;;;;;;5071215;28;20202;-68
2022/05/08 02:29:48;;;;;;;1.10;1.10;;;11.10;99.90;;;;;;5084903;28;20305;-68
2022/05/08 02:32:15;;;;;;;1.73;1.20;;;11.00;99.90;;;;;;5094302;28;20247;-69
2022/05/08 02:34:42;;;;;;;1.40;1.30;;;10.90;99.90;;;;;;5092087;28;20210;-68
2022/05/08 02:37:09;;;;;;;1.40;1.30;;;10.90;99.90;;;;;;5098276;28;20258;-67
2022/05/08 02:39:36;;;;;;;1.10;1.10;;;10.90;99.90;;;;;;5093522;28;20282;-68
2022/05/08 02:42:03;;;;;;;1.17;1.10;;;10.90;99.90;;;;;;5091933;28;20234;-69
2022/05/08 02:44:30;;;;;;;1.60;1.30;;;10.90;99.90;;;;;;5091091;28;20301;-70
2022/05/08 02:46:59;;;;;;;1.30;1.30;;;10.90;99.90;;;;;;5090572;28;20265;-67
2022/05/08 02:49:26;;;;;;;1.30;1.30;;;11.00;99.90;;;;;;5090362;28;20261;-69
2022/05/08 02:51:53;;;;;;;1.10;1.10;;;11.00;99.90;;;;;;5091254;28;20214;-68
2022/05/08 02:54:19;;;;;;;1.17;1.17;;;11.00;99.90;;;;;;5090964;28;20297;-69
2022/05/08 02:59:31;;;;;;;1.20;1.20;;;11.10;99.90;;;;;;5070340;28;20198;-68
2022/05/08 03:01:59;;;;;;;1.00;1.00;;;11.10;99.90;;;;;;5068500;28;20202;-68
2022/05/08 03:04:26;;;;;;;1.20;1.20;;;11.10;99.90;;;;;;5069870;28;20211;-67
2022/05/08 03:06:53;;;;;;;1.10;1.10;;;11.10;99.90;;;;;;5050586;22;20597;-63
2022/05/08 03:09:20;;;;;;;1.20;1.20;;;11.00;99.90;;;;;;5029598;28;20224;-60
2022/05/08 03:11:47;;;;;;;1.10;1.10;;;11.00;99.90;;;;;;5030233;28;20214;-60
2022/05/08 03:14:14;;;;;;;1.50;1.40;;;11.00;99.90;;;;;;5030355;28;20406;-60
2022/05/08 03:16:41;;;;;;;1.20;1.20;;;11.00;99.90;;;;;;5029226;28;20228;-63
2022/05/08 03:19:09;;;;;;;1.20;1.20;;;10.90;99.90;;;;;;5030494;28;20209;-60
2022/05/08 03:21:37;;;;;;;1.30;1.30;;;10.80;99.90;;;;;;5031458;28;20302;-62
2022/05/08 03:24:05;;;;;;;1.30;1.30;;;10.80;99.90;;;;;;5032449;28;20867;-61
2022/05/08 03:26:31;;;;;;;1.33;1.33;;;10.90;99.90;;;;;;5030984;28;20293;-62
2022/05/08 03:28:59;;;;;;;1.60;1.50;;;10.90;99.90;;;;;;5031259;28;20311;-62
2022/05/08 03:31:26;;;;;;;1.30;1.30;;;10.80;99.90;;;;;;5031962;28;20214;-61
2022/05/08 03:33:52;;;;;;;3.03;1.30;;;10.80;99.90;;;;;;5032999;28;20208;-61
2022/05/08 03:36:21;;;;;;;1.40;1.40;;;10.80;99.90;;;;;;5030507;28;20251;-62
2022/05/08 03:38:48;;;;;;;1.20;1.20;;;10.80;99.90;;;;;;5029043;28;20284;-61
2022/05/08 03:41:16;;;;;;;1.40;1.40;;;10.80;99.90;;;;;;5028345;28;20204;-60
2022/05/08 03:43:44;;;;;;;1.23;1.23;;;10.80;99.90;;;;;;5022860;28;20212;-61
2022/05/08 03:46:13;;;;;;;1.40;1.37;;;10.80;99.90;;;;;;5029838;28;20744;-61
2022/05/08 03:48:40;;;;;;;1.37;1.37;;;10.80;99.90;;;;;;5029357;28;20232;-61
2022/05/08 03:51:08;;;;;;;1.50;1.40;;;10.80;99.90;;;;;;5028381;28;20213;-61
2022/05/08 03:53:36;;;;;;;1.13;1.13;;;10.80;99.90;;;;;;5029811;28;20793;-63
2022/05/08 03:56:03;;;;;;;1.20;1.20;;;10.80;99.90;;;;;;5029396;28;20233;-63
2022/05/08 03:58:30;;;;;;;1.17;1.17;;;10.80;99.90;;;;;;5024394;28;20716;-61
2022/05/08 04:00:57;;;;;;;1.30;1.27;;;10.80;99.90;;;;;;5029980;28;20211;-61
2022/05/08 04:03:24;;;;;;;1.50;1.40;;;11.00;99.90;;;;;;5030389;28;20239;-62
2022/05/08 04:05:51;;;;;;;1.40;1.40;;;10.90;99.90;;;;;;5030042;28;20259;-61
2022/05/08 04:08:18;;;;;;;1.10;1.10;;;10.90;99.90;;;;;;5031780;28;20185;-61
2022/05/08 04:10:46;;;;;;;1.27;1.27;;;10.90;99.90;;;;;;5032648;28;20277;-62
2022/05/08 04:13:13;;;;;;;1.20;1.20;;;10.90;99.90;;;;;;5034102;28;20244;-62
2022/05/08 04:18:32;;;;;;;1.33;1.33;;;10.90;99.90;;;;;;4997078;28;20287;-60
2022/05/08 04:20:59;;;;;;;1.23;1.23;;;10.80;99.90;;;;;;5032974;28;20236;-63
2022/05/08 04:26:13;;;;;;;1.30;1.30;;;10.80;99.90;;;;;;5033490;28;20301;-60
2022/05/08 04:28:40;;;;;;;1.30;1.30;;;10.80;99.90;;;;;;5033824;28;20308;-62
2022/05/08 04:31:06;;;;;;;1.43;1.40;;;10.80;99.90;;;;;;5032530;28;20251;-59
2022/05/08 04:33:33;;;;;;;1.30;1.30;;;10.80;99.90;;;;;;5032671;28;20307;-63
2022/05/08 04:36:00;;;;;;;1.70;1.60;;;10.80;99.90;;;;;;5033152;28;20287;-62
2022/05/08 04:38:27;;;;;;;1.20;1.20;;;10.80;99.90;;;;;;5033118;28;20209;-62
2022/05/08 04:40:54;;;;;;;1.40;1.40;;;10.90;99.90;;;;;;5032415;28;20218;-62
2022/05/08 04:43:22;;;;;;;1.20;1.20;;;10.90;99.90;;;;;;5032217;28;20295;-60
2022/05/08 04:45:49;;;;;;;1.30;1.30;;;10.90;99.90;;;;;;5032330;28;20311;-61
2022/05/08 04:48:17;;;;;;;1.40;1.30;;;10.80;99.90;;;;;;5032657;28;20196;-61
2022/05/08 04:50:44;;;;;;;1.20;1.20;;;10.90;99.90;;;;;;5031369;28;20229;-62
2022/05/08 04:53:10;;;;;;;1.30;1.30;;;10.80;99.90;;;;;;5032073;28;20687;-61
2022/05/08 04:55:37;;;;;;;1.40;1.30;;;10.90;99.90;;;;;;5032251;28;20224;-60
2022/05/08 04:58:04;;;;;;;1.40;1.40;;;10.80;99.90;;;;;;5032340;28;20300;-62
2022/05/08 05:00:32;;;;;;;1.20;1.20;;;10.80;99.90;;;;;;5032395;28;20585;-61
2022/05/08 05:02:59;;;;;;;1.20;1.20;;;10.80;99.90;;;;;;5032585;28;20734;-61
2022/05/08 05:05:26;;;;;;;2.00;1.50;;;10.80;99.90;;;;;;5032288;28;20263;-60
2022/05/08 05:07:53;;;;;;;1.57;1.53;;;10.80;99.90;;;;;;5031860;28;20231;-60
2022/05/08 05:10:20;;;;;;;1.30;1.30;;;10.90;99.90;;;;;;5030959;28;20303;-61
2022/05/08 05:12:47;;;;;;;1.23;1.23;;;10.90;99.90;;;;;;5031752;28;20636;-60
2022/05/08 05:15:14;;;;;;;1.40;1.40;;;10.90;99.90;;;;;;5030493;28;20299;-61
2022/05/08 05:17:42;;;;;;;1.40;1.40;;;10.90;99.90;;;;;;5031522;28;20208;-62
2022/05/08 05:20:10;;;;;;;1.47;1.47;;;11.00;99.90;;;;;;5030568;28;20239;-61
2022/05/08 05:22:37;;;;;;;1.60;1.50;;;11.00;99.90;;;;;;5032916;28;20212;-61
2022/05/08 05:25:04;;;;;;;1.30;1.30;;;11.10;99.90;;;;;;5031619;28;20205;-62
2022/05/08 05:27:31;;;;;;;1.33;1.33;;;11.20;99.90;;;;;;5032468;28;20204;-61
2022/05/08 05:29:58;;;;;;;1.40;1.30;;;11.20;99.90;;;;;;5031165;28;20238;-61
2022/05/08 05:32:26;;;;;;;1.40;1.40;;;11.40;99.90;;;;;;5031717;28;20208;-60
2022/05/08 05:34:54;;;;;;;1.20;1.20;;;11.60;99.90;;;;;;5032280;28;20239;-62
2022/05/08 05:37:21;;;;;;;1.40;1.40;;;11.80;99.90;;;;;;5030417;28;20271;-63
2022/05/08 05:39:48;;;;;;;1.20;1.20;;;12.00;99.90;;;;;;5031529;28;20201;-61
2022/05/08 05:42:14;;;;;;;1.90;1.40;;;12.10;99.90;;;;;;5032017;28;20294;-60
2022/05/08 05:44:41;;;;;;;1.40;1.40;;;12.30;99.90;;;;;;5032057;28;20205;-61
2022/05/08 05:49:54;;;;;;;1.23;1.23;;;12.80;99.90;;;;;;5030657;28;20211;-61
2022/05/08 05:52:22;;;;;;;1.20;1.20;;;13.00;99.90;;;;;;5031343;28;20203;-62
2022/05/08 05:54:48;;;;;;;1.30;1.30;;;13.10;99.90;;;;;;5031778;28;20813;-63
2022/05/08 05:57:15;;;;;;;1.30;1.30;;;13.00;99.90;;;;;;5030288;28;20225;-63
2022/05/08 05:59:42;;;;;;;1.40;1.40;;;13.00;99.90;;;;;;5030120;28;20581;-60
2022/05/08 06:02:09;;;;;;;1.00;1.00;;;12.90;99.90;;;;;;5026159;28;20225;-61
2022/05/08 06:04:36;;;;;;;1.23;1.23;;;13.10;99.90;;;;;;5030708;28;20734;-62
2022/05/08 06:07:05;;;;;;;1.10;1.10;;;13.30;99.90;;;;;;5039074;28;20241;-61
2022/05/08 06:09:31;;;;;;;1.20;1.20;;;13.50;99.90;;;;;;5034246;28;20232;-62
2022/05/08 06:11:58;;;;;;;1.47;1.40;;;13.60;99.90;;;;;;5030842;28;20205;-62
2022/05/08 06:14:25;;;;;;;1.30;1.30;;;13.80;99.90;;;;;;5030447;28;20301;-63
2022/05/08 06:16:54;;;;;;;1.30;1.30;;;14.00;99.90;;;;;;5030557;28;20228;-62
2022/05/08 06:19:21;;;;;;;1.37;1.10;;;14.10;99.90;;;;;;5029255;28;20208;-63
2022/05/08 06:21:48;;;;;;;1.10;1.10;;;14.30;99.90;;;;;;5030569;28;20271;-63
2022/05/08 06:24:16;;;;;;;1.30;1.30;;;14.60;99.90;;;;;;5030898;28;20252;-63
2022/05/08 06:26:43;;;;;;;1.43;1.20;;;14.70;99.90;;;;;;5031160;28;20314;-63
2022/05/08 06:29:10;;;;;;;1.00;1.00;;;14.90;99.90;;;;;;5029582;28;20284;-62
2022/05/08 06:31:37;;;;;;;1.03;1.03;;;15.10;99.90;;;;;;5032192;28;20643;-65
2022/05/08 06:34:04;;;;;;;1.10;1.10;;;15.10;99.90;;;;;;5030445;28;20208;-63
2022/05/08 06:36:32;;;;;;;1.07;1.07;;;15.40;99.90;;;;;;5030919;28;20311;-63
2022/05/08 06:38:59;;;;;;;1.10;1.10;;;15.40;99.90;;;;;;5030524;28;20217;-63
2022/05/08 06:41:28;;;;;;;1.10;1.10;;;15.60;99.90;;;;;;5029193;28;20204;-62
2022/05/08 06:43:55;;;;;;;1.30;1.30;;;15.60;99.90;;;;;;5029818;28;20219;-62
2022/05/08 06:46:22;;;;;;;1.50;1.40;;;15.60;99.90;;;;;;5027274;28;20294;-62
2022/05/08 06:48:49;;;;;;;1.50;1.40;;;15.50;99.90;;;;;;5029537;28;20699;-63
2022/05/08 06:51:16;;;;;;;1.30;1.30;;;15.60;99.90;;;;;;5028143;28;20591;-61
2022/05/08 06:53:43;;;;;;;1.50;1.40;;;15.70;99.90;;;;;;5029981;28;20200;-63
2022/05/08 06:56:13;;;;;;;1.27;1.27;;;15.80;99.90;;;;;;5031817;28;20226;-63
2022/05/08 07:04:03;;;;;;;1.30;1.30;;;16.20;99.90;;;;;;5027003;28;20819;-62
2022/05/08 07:06:30;;;;;;;1.10;1.10;;;16.30;99.90;;;;;;5026999;28;20307;-62
2022/05/08 07:08:57;;;;;;;1.23;1.23;;;16.40;99.90;;;;;;5029990;28;20236;-63
2022/05/08 07:11:23;;;;;;;1.10;1.10;;;16.40;99.90;;;;;;5019476;28;20229;-60
2022/05/08 07:13:52;;;;;;;1.03;1.03;;;16.50;99.90;;;;;;5027994;28;20228;-63
2022/05/08 07:16:19;;;;;;;1.03;1.03;;;16.70;99.90;;;;;;5033325;28;20635;-60
2022/05/08 07:18:46;;;;;;;1.00;1.00;;;16.80;99.90;;;;;;5031795;28;20212;-64
2022/05/08 07:21:13;;;;;;;1.00;1.00;;;16.90;99.90;;;;;;5031241;28;20203;-61
2022/05/08 07:23:40;;;;;;;1.10;1.10;;;17.00;99.90;;;;;;5035214;28;20268;-61
2022/05/08 07:26:07;;;;;;;1.20;1.20;;;17.10;99.90;;;;;;5036512;28;20291;-64
2022/05/08 07:28:34;;;;;;;1.20;1.20;;;17.20;99.90;;;;;;5030590;28;20216;-62
2022/05/08 07:31:03;;;;;;;1.10;1.10;;;17.30;99.90;;;;;;5034466;28;20224;-62
2022/05/08 07:33:34;;;;;;;0.90;0.90;;;17.40;99.90;;;;;;5022518;28;20200;-62
2022/05/08 07:36:15;;;;;;;1.38;1.33;;;17.60;99.90;;;;;;5030479;28;20232;-62
2022/05/08 07:38:43;;;;;;;1.10;1.10;;;17.80;99.90;;;;;;5023315;28;20189;-62
2022/05/08 07:41:12;;;;;;;1.20;1.20;;;17.80;99.90;;;;;;5029076;28;20224;-61
2022/05/08 07:43:39;;;;;;;0.87;0.87;;;17.80;99.90;;;;;;5028235;28;20200;-61
2022/05/08 07:46:07;;;;;;;4.07;1.30;;;17.90;99.90;;;;;;5032781;28;20326;-63
2022/05/08 07:48:35;;;;;;;1.10;1.10;;;18.00;99.90;;;;;;5032489;28;20580;-62
2022/05/08 07:51:02;;;;;;;1.23;1.23;;;18.10;99.90;;;;;;5032186;28;20240;-61
2022/05/08 07:53:30;;;;;;;1.10;1.10;;;18.10;99.90;;;;;;5033171;28;20295;-61
2022/05/08 07:55:58;;;;;;;1.10;1.10;;;18.20;99.90;;;;;;5032322;28;20307;-61
2022/05/08 07:58:28;;;;;;;1.00;1.00;;;18.20;99.90;;;;;;5032455;28;20698;-61
2022/05/08 08:00:57;;;;;;;1.20;1.20;;;18.20;99.90;;;;;;5032338;28;20199;-62
2022/05/08 08:03:27;;;;;;;1.10;1.10;;;18.40;99.90;;;;;;5032566;28;20251;-62
2022/05/08 08:05:54;;;;;;;1.27;1.27;;;18.50;99.90;;;;;;5031545;28;20238;-61
2022/05/08 08:08:23;;;;;;;1.10;1.10;;;18.50;99.90;;;;;;5032454;28;20266;-62
2022/05/08 08:10:52;;;;;;;1.10;1.10;;;18.50;99.90;;;;;;5031700;28;20216;-62
2022/05/08 08:13:19;;;;;;;1.10;1.10;;;18.70;99.90;;;;;;5032456;28;20212;-63
2022/05/08 08:15:46;;;;;;;1.17;1.17;;;18.70;99.90;;;;;;5031441;28;20229;-63
2022/05/08 08:18:13;;;;;;;1.30;1.20;;;18.70;99.90;;;;;;5032710;28;20215;-62
2022/05/08 08:20:42;;;;;;;1.20;1.20;;;18.90;99.90;;;;;;5031372;28;20627;-62
2022/05/08 08:23:09;;;;;;;1.10;1.10;;;19.10;99.90;;;;;;5032853;28;20369;-62
2022/05/08 08:25:36;;;;;;;0.97;0.97;;;19.20;99.90;;;;;;5032413;28;20220;-61
2022/05/08 08:28:03;;;;;;;1.17;1.10;;;19.10;99.90;;;;;;5032066;28;20741;-62
2022/05/08 08:30:31;;;;;;;1.17;1.17;;;18.90;99.90;;;;;;5031751;28;20227;-62
2022/05/08 08:32:57;;;;;;;1.10;1.10;;;18.70;99.90;;;;;;5027293;28;20304;-62
2022/05/08 08:35:24;;;;;;;1.20;1.20;;;18.50;99.90;;;;;;5032455;28;20315;-63
2022/05/08 08:37:53;;;;;;;1.10;1.10;;;18.60;99.90;;;;;;5026705;28;20682;-61
2022/05/08 08:40:20;;;;;;;1.00;1.00;;;18.60;99.90;;;;;;5025078;28;20316;-63
2022/05/08 08:42:50;;;;;;;1.77;1.20;;;18.60;99.90;;;;;;5025523;28;20705;-62
2022/05/08 08:48:06;;;;;;;1.20;1.20;;;19.00;99.90;;;;;;5022875;28;20331;-60
2022/05/08 08:50:34;;;;;;;1.05;1.05;;;19.30;99.90;;;;;;5028453;28;20295;-62
2022/05/08 08:53:04;;;;;;;1.02;1.00;;;19.50;99.90;;;;;;5030842;28;20290;-63
2022/05/08 08:55:32;;;;;;;1.00;1.00;;;19.50;99.90;;;;;;5031100;28;20304;-62
2022/05/08 08:58:00;;;;;;;0.90;0.90;;;19.60;99.90;;;;;;5030370;28;20701;-61
2022/05/08 09:00:27;;;;;;;1.07;1.07;;;19.60;99.90;;;;;;5029404;28;20204;-62
2022/05/08 09:02:55;;;;;;;1.00;1.00;;;19.50;99.90;;;;;;5022486;28;20205;-61
2022/05/08 09:05:24;;;;;;;1.33;1.23;;;19.60;99.90;;;;;;5030641;28;20299;-62
2022/05/08 09:07:52;;;;;;;1.20;1.20;;;19.70;99.90;;;;;;5029446;28;20211;-63
2022/05/08 09:10:22;;;;;;;1.20;1.20;;;19.80;99.90;;;;;;5028445;28;20228;-63
2022/05/08 09:13:06;;;;;;;1.00;1.00;;;19.80;99.90;;;;;;5031299;28;20737;-62
2022/05/08 09:15:35;;;;;;;1.10;1.10;;;19.70;99.90;;;;;;5027831;28;20244;-62
2022/05/08 09:18:05;;;;;;;1.10;1.10;;;19.70;99.90;;;;;;5032570;28;20201;-62
2022/05/08 09:20:39;;;;;;;1.10;1.10;;;19.70;99.90;;;;;;5032174;28;20243;-64
2022/05/08 09:23:14;;;;;;;1.10;1.10;;;19.80;99.90;;;;;;5033860;28;20548;-63
2022/05/08 09:25:51;;;;;;;1.10;1.10;;;19.80;99.90;;;;;;5029538;28;20232;-62
2022/05/08 09:28:19;;;;;;;1.37;1.30;;;19.90;99.90;;;;;;5031755;28;20813;-63
2022/05/08 09:31:00;;;;;;;1.13;1.13;;;20.10;99.90;;;;;;5030128;28;20221;-62
2022/05/08 09:33:29;;;;;;;1.20;1.20;;;20.20;99.90;;;;;;5036518;28;20205;-62
2022/05/08 09:35:57;;;;;;;1.20;1.20;;;20.50;99.90;;;;;;5039297;28;20228;-63
2022/05/08 09:38:41;;;;;;;1.10;1.10;;;20.50;99.90;;;;;;5039800;28;20209;-62
2022/05/08 09:41:10;;;;;;;1.30;1.30;;;20.80;99.90;;;;;;5031982;28;20566;-62
2022/05/08 09:43:37;;;;;;;1.43;1.20;;;20.90;99.90;;;;;;5032677;28;20209;-62
2022/05/08 09:46:06;;;;;;;1.20;1.20;;;21.00;99.90;;;;;;5031835;28;20255;-62
2022/05/08 09:48:34;;;;;;;1.20;1.20;;;20.90;99.90;;;;;;5025418;28;20252;-61
2022/05/08 09:51:03;;;;;;;1.10;1.10;;;20.80;99.90;;;;;;5032515;28;20220;-62
2022/05/08 09:53:32;;;;;;;1.07;1.07;;;21.10;99.90;;;;;;5032889;28;20663;-62
2022/05/08 09:56:00;;;;;;;1.10;1.10;;;21.20;99.90;;;;;;5030254;28;20699;-62
2022/05/08 09:58:29;;;;;;;0.90;0.90;;;21.40;99.90;;;;;;5033796;28;20209;-63
2022/05/08 10:00:57;;;;;;;1.25;1.25;;;21.70;99.90;;;;;;5031551;28;20193;-63
2022/05/08 10:03:25;;;;;;;1.23;1.23;;;22.00;99.90;;;;;;5024632;28;20268;-62
2022/05/08 10:05:52;;;;;;;1.00;1.00;;;22.10;99.90;;;;;;5032032;28;20660;-62
2022/05/08 10:08:22;;;;;;;1.20;1.20;;;22.20;99.90;;;;;;5032258;28;20221;-62
2022/05/08 10:13:56;;;;;;;1.10;1.10;;;21.90;99.90;;;;;;5031512;28;20191;-63
2022/05/08 10:16:48;;;;;;;1.20;1.20;;;21.70;99.90;;;;;;5030709;28;20267;-62
2022/05/08 10:19:45;;;;;;;1.20;1.15;;;21.60;99.90;;;;;;5030274;28;20295;-63
2022/05/08 10:22:13;;;;;;;1.10;1.10;;;21.60;99.90;;;;;;5031789;28;20201;-63
2022/05/08 10:24:42;;;;;;;1.35;1.25;;;21.60;99.90;;;;;;5032088;28;20248;-62
2022/05/08 10:27:10;;;;;;;1.30;1.20;;;21.40;99.90;;;;;;5030957;28;20789;-63
2022/05/08 10:29:38;;;;;;;1.20;1.20;;;21.30;99.90;;;;;;5020043;28;20202;-63
2022/05/08 10:32:09;;;;;;;1.10;1.10;;;21.50;99.90;;;;;;5030505;28;20224;-62
2022/05/08 10:34:37;;;;;;;1.00;1.00;;;21.70;99.90;;;;;;5028992;28;20602;-62
2022/05/08 10:37:27;;;;;;;1.00;1.00;;;21.90;99.90;;;;;;5031312;28;20315;-63
2022/05/08 10:39:54;;;;;;;1.15;1.15;;;22.20;99.90;;;;;;5011187;28;20209;-64
2022/05/08 10:42:45;;;;;;;1.00;1.00;;;22.30;99.90;;;;;;5012422;28;20590;-62
2022/05/08 10:45:40;;;;;;;1.10;1.10;;;22.70;99.90;;;;;;5012385;28;20196;-63
2022/05/08 10:48:12;;;;;;;0.90;0.90;;;23.10;99.90;;;;;;5012821;28;20239;-67
2022/05/08 10:50:40;;;;;;;0.90;0.90;;;23.50;99.90;;;;;;5032076;28;20303;-67
2022/05/08 10:53:07;;;;;;;1.10;1.10;;;23.70;99.90;;;;;;5038891;28;20250;-61
2022/05/08 10:55:34;;;;;;;0.98;0.98;;;23.90;99.90;;;;;;5032680;28;20312;-63
2022/05/08 10:58:01;;;;;;;0.80;0.80;;;23.90;99.90;;;;;;5033511;28;20227;-62
2022/05/08 11:00:30;;;;;;;0.90;0.90;;;24.10;99.90;;;;;;5032799;28;20208;-63
2022/05/08 11:02:59;;;;;;;0.93;0.93;;;24.30;99.90;;;;;;5031623;28;20210;-64
2022/05/08 11:05:29;;;;;;;2.58;1.00;;;24.50;99.90;;;;;;5031733;28;20282;-63
2022/05/08 11:07:57;;;;;;;0.93;0.93;;;24.50;99.90;;;;;;5031957;28;20218;-62
2022/05/08 11:10:26;;;;;;;1.05;1.05;;;24.40;99.90;;;;;;5030792;28;20295;-63
2022/05/08 11:13:00;;;;;;;0.80;0.80;;;24.50;99.90;;;;;;5031892;28;20211;-63
2022/05/08 11:15:27;;;;;;;0.90;0.90;;;24.80;99.90;;;;;;5031351;28;20234;-63
2022/05/08 11:18:07;;;;;;;1.02;1.00;;;25.00;99.90;;;;;;5032293;28;20543;-63
2022/05/08 11:20:37;;;;;;;0.80;0.80;;;25.30;99.90;;;;;;5034944;28;20563;-62
2022/05/08 11:23:05;;;;;;;0.90;0.90;;;25.50;99.90;;;;;;5035889;28;20215;-63
2022/05/08 11:25:32;;;;;;;1.08;1.00;;;25.70;99.90;;;;;;5035635;28;20228;-64
2022/05/08 11:27:59;;;;;;;0.82;0.82;;;25.50;99.90;;;;;;5035654;28;20204;-64
2022/05/08 11:30:31;;;;;;;0.77;0.77;;;25.20;99.90;;;;;;5034775;28;20251;-63
2022/05/08 11:36:06;;;;;;;0.90;0.90;;;25.40;99.90;;;;;;5035871;28;20238;-62
2022/05/08 11:38:44;;;;;;;0.90;0.90;;;25.10;99.60;;;;;;5035145;28;20272;-63
2022/05/08 11:41:11;;;;;;;1.05;1.02;;;25.10;99.90;;;;;;5033946;28;20246;-63
2022/05/08 11:43:43;;;;;;;0.90;0.90;;;24.80;99.10;;;;;;5034963;28;20200;-62
2022/05/08 11:46:15;;;;;;;0.90;0.90;;;24.50;98.90;;;;;;5034779;28;20229;-62
2022/05/08 11:48:42;;;;;;;1.05;0.95;;;24.40;99.80;;;;;;5034637;28;20204;-62
2022/05/08 11:51:11;;;;;;;0.90;0.90;;;24.30;98.90;;;;;;5034246;28;20228;-62
2022/05/08 11:53:47;;;;;;;0.73;0.73;;;24.30;98.50;;;;;;5035090;28;20209;-62
2022/05/08 11:56:28;;;;;;;0.80;0.80;;;24.40;98.30;;;;;;5035035;28;20224;-63
2022/05/08 11:58:56;;;;;;;1.05;1.00;;;24.30;98.10;;;;;;5034735;28;20279;-62
2022/05/08 12:01:28;;;;;;;0.90;0.90;;;23.90;97.40;;;;;;5033702;28;20205;-63
2022/05/08 12:03:55;;;;;;;0.73;0.73;;;23.90;97.80;;;;;;5052977;22;20258;-68
2022/05/08 12:06:23;;;;;;;0.90;0.90;;;24.20;98.40;;;;;;5056423;28;20208;-68
2022/05/08 12:08:51;;;;;;;0.80;0.80;;;24.20;98.70;;;;;;5038534;28;20235;-69
2022/05/08 12:11:28;;;;;;;1.13;0.88;;;24.20;98.90;;;;;;5036876;28;20320;-66
2022/05/08 12:14:03;;;;;;;0.90;0.90;;;24.30;98.50;;;;;;5046910;28;20310;-69
2022/05/08 12:16:31;;;;;;;0.80;0.80;;;24.50;98.60;;;;;;5055693;28;20286;-68
2022/05/08 12:19:15;;;;;;;0.73;0.73;;;24.70;98.60;;;;;;5055430;28;20219;-67
2022/05/08 12:21:44;;;;;;;0.80;0.80;;;24.90;98.60;;;;;;5057195;28;20616;-69
2022/05/08 12:24:13;;;;;;;0.93;0.93;;;25.00;98.60;;;;;;5055343;28;20332;-69
2022/05/08 12:26:40;;;;;;;1.92;1.30;;;25.10;98.10;;;;;;5055156;28;20258;-68
2022/05/08 12:29:09;;;;;;;0.93;0.93;;;25.20;98.70;;;;;;5050654;28;20368;-69
2022/05/08 12:31:36;;;;;;;1.00;1.00;;;25.20;97.90;;;;;;5050229;28;20220;-68
2022/05/08 12:34:05;;;;;;;1.08;1.08;;;25.20;98.00;;;;;;5053625;28;20220;-68
2022/05/08 12:36:33;;;;;;;0.88;0.88;;;25.20;97.90;;;;;;5054286;28;20250;-70
2022/05/08 12:39:01;;;;;;;1.00;1.00;;;25.10;97.70;;;;;;5054829;28;20266;-68
2022/05/08 12:41:30;;;;;;;0.95;0.95;;;24.90;97.60;;;;;;5055667;28;20212;-69
2022/05/08 12:43:56;;;;;;;0.82;0.82;;;25.00;98.50;;;;;;5054623;28;20255;-69
2022/05/08 12:46:23;;;;;;;0.93;0.93;;;25.10;97.50;;;;;;5056334;28;20639;-68
2022/05/08 12:48:50;;;;;;;0.90;0.90;;;25.20;96.30;;;;;;5060145;28;20223;-69
2022/05/08 12:51:17;;;;;;;0.90;0.90;;;24.70;96.20;;;;;;5060573;28;20223;-69
2022/05/08 12:53:44;;;;;;;0.93;0.93;;;24.70;96.70;;;;;;5060903;28;20224;-67
2022/05/08 12:56:12;;;;;;;0.80;0.80;;;24.90;97.50;;;;;;5059254;28;20295;-68
2022/05/08 13:01:25;;;;;;;0.70;0.70;;;25.10;96.90;;;;;;5058572;28;20179;-69
2022/05/08 13:03:53;;;;;;;0.85;0.85;;;25.20;97.60;;;;;;5056491;28;20698;-69
2022/05/08 13:06:20;;;;;;;0.88;0.88;;;25.20;98.30;;;;;;5057414;28;20200;-67
2022/05/08 13:08:47;;;;;;;0.90;0.90;;;25.30;98.80;;;;;;5057128;28;20294;-67
2022/05/08 13:11:15;;;;;;;0.93;0.93;;;25.40;97.50;;;;;;5057379;28;20701;-68
2022/05/08 13:13:42;;;;;;;0.80;0.80;;;25.40;97.10;;;;;;5055406;28;20252;-68
2022/05/08 13:16:11;;;;;;;1.00;1.00;;;25.40;96.80;;;;;;5054694;28;20336;-70
2022/05/08 13:18:38;;;;;;;0.77;0.77;;;25.50;96.90;;;;;;5055279;28;20204;-68
2022/05/08 13:21:06;;;;;;;1.00;0.90;;;25.70;97.10;;;;;;5053671;28;20307;-70
2022/05/08 13:23:33;;;;;;;0.80;0.80;;;25.70;97.30;;;;;;5054115;28;20230;-70
2022/05/08 13:26:00;;;;;;;1.00;1.00;;;25.70;96.70;;;;;;5053845;28;20239;-67